sensor_id;sensor_type;location;lat;lon;timestamp;pressure;altitude;pressure_sealevel;temperature;humidity
16030;BME280;34770;49.272;11.070;2022-12-18T00:01:47;99060.53;;;-12.47;100.00
16030;BME280;34770;49.272;11.070;2022-12-18T00:04:24;99050.53;;;-12.30;100.00
16030;BME280;34770;49.272;11.070;2022-12-18T00:06:49;99055.88;;;-12.22;100.00
16030;BME280;34770;49.272;11.070;2022-12-18T00:09:15;99046.50;;;-12.03;100.00
16030;BME280;34770;49.272;11.070;2022-12-18T00:11:41;99052.72;;;-11.87;100.00
16030;BME280;34770;49.272;11.070;2022-12-18T00:14:06;99053.44;;;-11.70;100.00
16030;BME280;34770;49.272;11.070;2022-12-18T00:16:32;99034.81;;;-11.72;100.00
16030;BME280;34770;49.272;11.070;2022-12-18T00:19:01;99009.75;;;-11.87;100.00
16030;BME280;34770;49.272;11.070;2022-12-18T00:21:27;99057.13;;;-11.48;100.00
16030;BME280;34770;49.272;11.070;2022-12-18T00:23:53;99051.97;;;-11.34;100.00
16030;BME280;34770;49.272;11.070;2022-12-18T00:26:24;99054.31;;;-11.16;100.00
16030;BME280;34770;49.272;11.070;2022-12-18T00:28:50;99042.91;;;-11.03;100.00
16030;BME280;34770;49.272;11.070;2022-12-18T00:31:22;99048.66;;;-10.92;100.00
16030;BME280;34770;49.272;11.070;2022-12-18T00:33:48;99024.81;;;-10.95;100.00
16030;BME280;34770;49.272;11.070;2022-12-18T00:36:16;99034.56;;;-10.94;100.00
16030;BME280;34770;49.272;11.070;2022-12-18T00:38:42;99034.56;;;-10.94;100.00
16030;BME280;34770;49.272;11.070;2022-12-18T00:41:10;99036.50;;;-10.87;100.00
16030;BME280;34770;49.272;11.070;2022-12-18T00:43:36;99043.81;;;-10.81;100.00
16030;BME280;34770;49.272;11.070;2022-12-18T00:46:02;99008.31;;;-10.92;100.00
16030;BME280;34770;49.272;11.070;2022-12-18T00:48:28;99053.56;;;-10.50;100.00
16030;BME280;34770;49.272;11.070;2022-12-18T00:50:53;99049.75;;;-10.41;100.00
16030;BME280;34770;49.272;11.070;2022-12-18T00:53:19;99056.59;;;-10.38;100.00
16030;BME280;34770;49.272;11.070;2022-12-18T00:55:45;99053.31;;;-10.34;100.00
16030;BME280;34770;49.272;11.070;2022-12-18T00:58:12;99051.09;;;-10.30;100.00
16030;BME280;34770;49.272;11.070;2022-12-18T01:00:38;99055.25;;;-10.28;100.00
16030;BME280;34770;49.272;11.070;2022-12-18T01:03:05;99063.41;;;-10.21;100.00
16030;BME280;34770;49.272;11.070;2022-12-18T01:05:30;99049.75;;;-10.19;100.00
16030;BME280;34770;49.272;11.070;2022-12-18T01:07:56;99064.44;;;-10.00;100.00
16030;BME280;34770;49.272;11.070;2022-12-18T01:10:22;99072.06;;;-9.89;100.00
16030;BME280;34770;49.272;11.070;2022-12-18T01:12:48;99040.22;;;-10.00;100.00
16030;BME280;34770;49.272;11.070;2022-12-18T01:15:15;99067.56;;;-9.82;100.00
16030;BME280;34770;49.272;11.070;2022-12-18T01:17:40;99065.88;;;-9.83;100.00
16030;BME280;34770;49.272;11.070;2022-12-18T01:20:07;99076.81;;;-9.69;100.00
16030;BME280;34770;49.272;11.070;2022-12-18T01:22:33;99060.69;;;-9.63;100.00
16030;BME280;34770;49.272;11.070;2022-12-18T01:24:59;99070.50;;;-9.55;100.00
16030;BME280;34770;49.272;11.070;2022-12-18T01:27:24;99070.75;;;-9.50;100.00
16030;BME280;34770;49.272;11.070;2022-12-18T01:29:50;99035.34;;;-9.68;100.00
16030;BME280;34770;49.272;11.070;2022-12-18T01:32:15;99065.03;;;-9.40;100.00
16030;BME280;34770;49.272;11.070;2022-12-18T01:34:40;99021.91;;;-9.62;100.00
16030;BME280;34770;49.272;11.070;2022-12-18T01:37:06;99067.59;;;-9.32;100.00
16030;BME280;34770;49.272;11.070;2022-12-18T01:39:31;99066.44;;;-9.22;100.00
16030;BME280;34770;49.272;11.070;2022-12-18T01:41:58;99053.59;;;-9.42;100.00
16030;BME280;34770;49.272;11.070;2022-12-18T01:50:22;99081.38;;;-9.20;100.00
16030;BME280;34770;49.272;11.070;2022-12-18T01:53:00;99063.28;;;-9.26;100.00
16030;BME280;34770;49.272;11.070;2022-12-18T01:55:29;99071.22;;;-9.18;100.00
16030;BME280;34770;49.272;11.070;2022-12-18T01:57:57;99079.00;;;-9.08;100.00
16030;BME280;34770;49.272;11.070;2022-12-18T02:00:24;99079.16;;;-9.09;100.00
16030;BME280;34770;49.272;11.070;2022-12-18T02:02:50;99090.97;;;-9.10;100.00
16030;BME280;34770;49.272;11.070;2022-12-18T02:05:29;99091.53;;;-8.93;100.00
16030;BME280;34770;49.272;11.070;2022-12-18T02:13:26;99084.50;;;-8.88;100.00
16030;BME280;34770;49.272;11.070;2022-12-18T02:16:03;99080.88;;;-8.73;100.00
16030;BME280;34770;49.272;11.070;2022-12-18T02:18:36;99077.97;;;-8.72;100.00
16030;BME280;34770;49.272;11.070;2022-12-18T02:21:51;99081.38;;;-8.63;100.00
16030;BME280;34770;49.272;11.070;2022-12-18T02:26:55;99089.53;;;-8.50;100.00
16030;BME280;34770;49.272;11.070;2022-12-18T02:29:24;99098.66;;;-8.51;100.00
16030;BME280;34770;49.272;11.070;2022-12-18T02:31:55;99103.88;;;-8.42;100.00
16030;BME280;34770;49.272;11.070;2022-12-18T02:34:39;99090.19;;;-8.34;100.00
16030;BME280;34770;49.272;11.070;2022-12-18T02:37:07;99097.47;;;-8.35;100.00
16030;BME280;34770;49.272;11.070;2022-12-18T02:39:36;99093.75;;;-8.27;100.00
16030;BME280;34770;49.272;11.070;2022-12-18T02:42:03;99086.69;;;-8.28;100.00
16030;BME280;34770;49.272;11.070;2022-12-18T02:44:33;99093.78;;;-8.20;100.00
16030;BME280;34770;49.272;11.070;2022-12-18T02:46:59;99086.94;;;-8.16;100.00
16030;BME280;34770;49.272;11.070;2022-12-18T02:52:05;99084.88;;;-8.14;100.00
16030;BME280;34770;49.272;11.070;2022-12-18T03:00:18;99092.00;;;-7.99;100.00
16030;BME280;34770;49.272;11.070;2022-12-18T03:02:59;99096.38;;;-7.98;100.00
16030;BME280;34770;49.272;11.070;2022-12-18T03:05:53;99099.91;;;-7.98;100.00
16030;BME280;34770;49.272;11.070;2022-12-18T03:08:24;99055.59;;;-8.10;100.00
16030;BME280;34770;49.272;11.070;2022-12-18T03:11:11;99092.84;;;-7.92;100.00
16030;BME280;34770;49.272;11.070;2022-12-18T03:16:07;99086.25;;;-7.83;100.00
16030;BME280;34770;49.272;11.070;2022-12-18T03:18:39;99063.38;;;-7.80;100.00
16030;BME280;34770;49.272;11.070;2022-12-18T03:21:07;99062.75;;;-7.69;100.00
16030;BME280;34770;49.272;11.070;2022-12-18T03:23:40;99067.13;;;-7.61;100.00
16030;BME280;34770;49.272;11.070;2022-12-18T03:26:09;99074.41;;;-7.62;100.00
16030;BME280;34770;49.272;11.070;2022-12-18T03:28:40;99067.34;;;-7.63;100.00
16030;BME280;34770;49.272;11.070;2022-12-18T03:31:09;99086.28;;;-7.56;100.00
16030;BME280;34770;49.272;11.070;2022-12-18T03:33:52;99094.81;;;-7.53;100.00
16030;BME280;34770;49.272;11.070;2022-12-18T03:36:18;99063.78;;;-7.70;100.00
16030;BME280;34770;49.272;11.070;2022-12-18T03:38:43;99085.88;;;-7.53;100.00
16030;BME280;34770;49.272;11.070;2022-12-18T03:41:31;99100.03;;;-7.44;100.00
16030;BME280;34770;49.272;11.070;2022-12-18T03:44:03;99090.47;;;-7.40;100.00
16030;BME280;34770;49.272;11.070;2022-12-18T03:49:28;99099.22;;;-7.31;100.00
16030;BME280;34770;49.272;11.070;2022-12-18T03:54:28;99104.63;;;-7.25;100.00
16030;BME280;34770;49.272;11.070;2022-12-18T03:56:59;99107.94;;;-7.23;100.00
16030;BME280;34770;49.272;11.070;2022-12-18T03:59:27;99104.22;;;-7.22;100.00
16030;BME280;34770;49.272;11.070;2022-12-18T04:01:56;99109.22;;;-7.18;100.00
16030;BME280;34770;49.272;11.070;2022-12-18T04:04:24;99102.97;;;-7.12;100.00
16030;BME280;34770;49.272;11.070;2022-12-18T04:06:51;99102.97;;;-7.12;100.00
16030;BME280;34770;49.272;11.070;2022-12-18T04:09:18;99102.13;;;-7.13;100.00
16030;BME280;34770;49.272;11.070;2022-12-18T04:11:46;99095.47;;;-7.10;100.00
16030;BME280;34770;49.272;11.070;2022-12-18T04:14:11;99093.38;;;-7.08;100.00
16030;BME280;34770;49.272;11.070;2022-12-18T04:16:37;99095.28;;;-7.09;100.00
16030;BME280;34770;49.272;11.070;2022-12-18T04:19:03;99104.81;;;-7.13;100.00
16030;BME280;34770;49.272;11.070;2022-12-18T04:21:28;99114.84;;;-7.07;100.00
16030;BME280;34770;49.272;11.070;2022-12-18T04:23:54;99115.44;;;-7.05;100.00
16030;BME280;34770;49.272;11.070;2022-12-18T04:26:19;99116.72;;;-7.00;100.00
16030;BME280;34770;49.272;11.070;2022-12-18T04:28:45;99121.72;;;-7.04;100.00
16030;BME280;34770;49.272;11.070;2022-12-18T04:31:10;99119.84;;;-7.03;100.00
16030;BME280;34770;49.272;11.070;2022-12-18T04:33:36;99114.63;;;-6.98;100.00
16030;BME280;34770;49.272;11.070;2022-12-18T04:36:01;99111.91;;;-6.98;100.00
16030;BME280;34770;49.272;11.070;2022-12-18T04:38:26;99123.16;;;-6.95;100.00
16030;BME280;34770;49.272;11.070;2022-12-18T04:40:52;99125.25;;;-6.97;100.00
16030;BME280;34770;49.272;11.070;2022-12-18T04:43:17;99127.75;;;-6.95;100.00
16030;BME280;34770;49.272;11.070;2022-12-18T04:45:42;99137.53;;;-6.94;100.00
16030;BME280;34770;49.272;11.070;2022-12-18T04:48:08;99133.38;;;-6.97;100.00
16030;BME280;34770;49.272;11.070;2022-12-18T04:50:33;99141.09;;;-6.87;100.00
16030;BME280;34770;49.272;11.070;2022-12-18T04:52:59;99132.53;;;-6.91;100.00
16030;BME280;34770;49.272;11.070;2022-12-18T04:55:24;99133.78;;;-6.86;100.00
16030;BME280;34770;49.272;11.070;2022-12-18T04:57:49;99129.81;;;-6.84;100.00
16030;BME280;34770;49.272;11.070;2022-12-18T05:00:15;99123.81;;;-6.86;100.00
16030;BME280;34770;49.272;11.070;2022-12-18T05:02:40;99132.75;;;-6.79;100.00
16030;BME280;34770;49.272;11.070;2022-12-18T05:05:06;99127.75;;;-6.82;100.00
16030;BME280;34770;49.272;11.070;2022-12-18T05:07:31;99124.63;;;-6.79;100.00
16030;BME280;34770;49.272;11.070;2022-12-18T05:09:57;99127.09;;;-6.84;100.00
16030;BME280;34770;49.272;11.070;2022-12-18T05:12:22;99121.69;;;-6.77;100.00
16030;BME280;34770;49.272;11.070;2022-12-18T05:14:47;99121.47;;;-6.76;100.00
16030;BME280;34770;49.272;11.070;2022-12-18T05:17:13;99118.16;;;-6.71;100.00
16030;BME280;34770;49.272;11.070;2022-12-18T05:19:38;99121.69;;;-6.77;100.00
16030;BME280;34770;49.272;11.070;2022-12-18T05:22:03;99113.16;;;-6.67;100.00
16030;BME280;34770;49.272;11.070;2022-12-18T05:24:35;99135.63;;;-6.67;100.00
16030;BME280;34770;49.272;11.070;2022-12-18T05:27:00;99140.00;;;-6.66;100.00
16030;BME280;34770;49.272;11.070;2022-12-18T05:29:26;99124.38;;;-6.70;100.00
16030;BME280;34770;49.272;11.070;2022-12-18T05:31:51;99127.75;;;-6.75;100.00
16030;BME280;34770;49.272;11.070;2022-12-18T05:34:16;99132.94;;;-6.74;100.00
16030;BME280;34770;49.272;11.070;2022-12-18T05:36:42;99126.69;;;-6.67;100.00
16030;BME280;34770;49.272;11.070;2022-12-18T05:39:10;99117.09;;;-6.77;100.00
16030;BME280;34770;49.272;11.070;2022-12-18T05:41:35;99118.34;;;-6.66;100.00
16030;BME280;34770;49.272;11.070;2022-12-18T05:44:00;99119.78;;;-6.63;100.00
16030;BME280;34770;49.272;11.070;2022-12-18T05:46:26;99121.66;;;-6.57;100.00
16030;BME280;34770;49.272;11.070;2022-12-18T05:48:51;99114.78;;;-6.53;100.00
16030;BME280;34770;49.272;11.070;2022-12-18T05:51:19;99122.06;;;-6.53;100.00
16030;BME280;34770;49.272;11.070;2022-12-18T05:53:45;99125.63;;;-6.53;100.00
16030;BME280;34770;49.272;11.070;2022-12-18T05:56:14;99126.03;;;-6.49;100.00
16030;BME280;34770;49.272;11.070;2022-12-18T05:58:40;99131.66;;;-6.44;100.00
16030;BME280;34770;49.272;11.070;2022-12-18T06:01:18;99140.81;;;-6.45;100.00
16030;BME280;34770;49.272;11.070;2022-12-18T06:03:44;99147.28;;;-6.46;100.00
16030;BME280;34770;49.272;11.070;2022-12-18T06:06:18;99145.00;;;-6.49;100.00
16030;BME280;34770;49.272;11.070;2022-12-18T06:08:44;99135.63;;;-6.47;100.00
16030;BME280;34770;49.272;11.070;2022-12-18T06:11:10;99151.47;;;-6.44;100.00
16030;BME280;34770;49.272;11.070;2022-12-18T06:13:36;99143.13;;;-6.49;100.00
16030;BME280;34770;49.272;11.070;2022-12-18T06:16:03;99147.91;;;-6.44;100.00
16030;BME280;34770;49.272;11.070;2022-12-18T06:18:29;99148.94;;;-6.45;100.00
16030;BME280;34770;49.272;11.070;2022-12-18T06:20:55;99131.03;;;-6.39;100.00
16030;BME280;34770;49.272;11.070;2022-12-18T06:23:21;99141.63;;;-6.38;100.00
16030;BME280;34770;49.272;11.070;2022-12-18T06:25:47;99140.81;;;-6.38;100.00
16030;BME280;34770;49.272;11.070;2022-12-18T06:28:12;99132.47;;;-6.37;100.00
16030;BME280;34770;49.272;11.070;2022-12-18T06:30:37;99146.66;;;-6.42;100.00
16030;BME280;34770;49.272;11.070;2022-12-18T06:33:03;99153.53;;;-6.39;100.00
16030;BME280;34770;49.272;11.070;2022-12-18T06:35:28;99158.34;;;-6.41;100.00
16030;BME280;34770;49.272;11.070;2022-12-18T06:37:53;99167.91;;;-6.38;100.00
16030;BME280;34770;49.272;11.070;2022-12-18T06:40:19;99171.66;;;-6.39;100.00
16030;BME280;34770;49.272;11.070;2022-12-18T06:42:46;99174.78;;;-6.43;100.00
16030;BME280;34770;49.272;11.070;2022-12-18T06:45:12;99182.72;;;-6.41;100.00
16030;BME280;34770;49.272;11.070;2022-12-18T06:47:39;99181.06;;;-6.42;100.00
16030;BME280;34770;49.272;11.070;2022-12-18T06:50:05;99179.19;;;-6.48;100.00
16030;BME280;34770;49.272;11.070;2022-12-18T06:52:32;99195.00;;;-6.45;100.00
16030;BME280;34770;49.272;11.070;2022-12-18T06:54:57;99177.72;;;-6.44;100.00
16030;BME280;34770;49.272;11.070;2022-12-18T06:57:22;99176.03;;;-6.45;100.00
16030;BME280;34770;49.272;11.070;2022-12-18T06:59:48;99180.19;;;-6.43;100.00
16030;BME280;34770;49.272;11.070;2022-12-18T07:02:13;99183.75;;;-6.42;100.00
16030;BME280;34770;49.272;11.070;2022-12-18T07:04:39;99171.66;;;-6.39;100.00
16030;BME280;34770;49.272;11.070;2022-12-18T07:07:04;99177.91;;;-6.39;100.00
16030;BME280;34770;49.272;11.070;2022-12-18T07:09:30;99180.84;;;-6.41;100.00
16030;BME280;34770;49.272;11.070;2022-12-18T07:11:55;99176.28;;;-6.40;100.00
16030;BME280;34770;49.272;11.070;2022-12-18T07:14:20;99177.50;;;-6.43;100.00
16030;BME280;34770;49.272;11.070;2022-12-18T07:16:46;99173.13;;;-6.37;100.00
16030;BME280;34770;49.272;11.070;2022-12-18T07:19:11;99179.56;;;-6.38;100.00
16030;BME280;34770;49.272;11.070;2022-12-18T07:21:37;99170.81;;;-6.33;100.00
16030;BME280;34770;49.272;11.070;2022-12-18T07:24:02;99169.16;;;-6.34;100.00
16030;BME280;34770;49.272;11.070;2022-12-18T07:26:28;99174.16;;;-6.31;100.00
16030;BME280;34770;49.272;11.070;2022-12-18T07:28:56;99171.41;;;-6.25;100.00
16030;BME280;34770;49.272;11.070;2022-12-18T07:31:23;99164.13;;;-6.24;100.00
16030;BME280;34770;49.272;11.070;2022-12-18T07:33:49;99167.03;;;-6.26;100.00
16030;BME280;34770;49.272;11.070;2022-12-18T07:36:15;99167.25;;;-6.27;100.00
16030;BME280;34770;49.272;11.070;2022-12-18T07:38:41;99184.13;;;-6.18;100.00
16030;BME280;34770;49.272;11.070;2022-12-18T07:41:11;99185.78;;;-6.17;100.00
16030;BME280;34770;49.272;11.070;2022-12-18T07:43:37;99188.09;;;-6.14;100.00
16030;BME280;34770;49.272;11.070;2022-12-18T07:46:04;99197.06;;;-6.20;100.00
16030;BME280;34770;49.272;11.070;2022-12-18T07:48:29;99190.81;;;-6.14;100.00
16030;BME280;34770;49.272;11.070;2022-12-18T07:51:03;99199.31;;;-6.04;100.00
16030;BME280;34770;49.272;11.070;2022-12-18T07:53:29;99205.78;;;-6.05;100.00
16030;BME280;34770;49.272;11.070;2022-12-18T07:56:02;99197.59;;;-5.98;100.00
16030;BME280;34770;49.272;11.070;2022-12-18T07:58:29;99202.41;;;-5.94;100.00
16030;BME280;34770;49.272;11.070;2022-12-18T08:01:02;99207.81;;;-5.94;100.00
16030;BME280;34770;49.272;11.070;2022-12-18T08:03:28;99206.97;;;-5.87;100.00
16030;BME280;34770;49.272;11.070;2022-12-18T08:05:58;99217.19;;;-5.83;100.00
16030;BME280;34770;49.272;11.070;2022-12-18T08:08:23;99221.97;;;-5.78;100.00
16030;BME280;34770;49.272;11.070;2022-12-18T08:10:49;99213.78;;;-5.71;100.00
16030;BME280;34770;49.272;11.070;2022-12-18T08:13:14;99217.94;;;-5.69;100.00
16030;BME280;34770;49.272;11.070;2022-12-18T08:15:39;99226.91;;;-5.62;100.00
16030;BME280;34770;49.272;11.070;2022-12-18T08:18:05;99217.78;;;-5.74;100.00
16030;BME280;34770;49.272;11.070;2022-12-18T08:20:30;99224.63;;;-5.65;100.00
16030;BME280;34770;49.272;11.070;2022-12-18T08:22:55;99216.91;;;-5.61;100.00
16030;BME280;34770;49.272;11.070;2022-12-18T08:25:23;99210.16;;;-5.52;100.00
16030;BME280;34770;49.272;11.070;2022-12-18T08:27:48;99218.75;;;-5.55;100.00
16030;BME280;34770;49.272;11.070;2022-12-18T08:30:13;99222.28;;;-5.54;100.00
16030;BME280;34770;49.272;11.070;2022-12-18T08:32:39;99222.47;;;-5.49;100.00
16030;BME280;34770;49.272;11.070;2022-12-18T08:35:05;99225.16;;;-5.42;100.00
16030;BME280;34770;49.272;11.070;2022-12-18T08:37:30;99225.97;;;-5.35;100.00
16030;BME280;34770;49.272;11.070;2022-12-18T08:39:55;99231.16;;;-5.34;100.00
16030;BME280;34770;49.272;11.070;2022-12-18T08:42:21;99231.56;;;-5.30;100.00
16030;BME280;34770;49.272;11.070;2022-12-18T08:45:05;99236.41;;;-5.32;100.00
16030;BME280;34770;49.272;11.070;2022-12-18T08:47:30;99230.75;;;-5.31;100.00
16030;BME280;34770;49.272;11.070;2022-12-18T08:49:56;99219.28;;;-5.33;100.00
16030;BME280;34770;49.272;11.070;2022-12-18T08:52:21;99220.06;;;-5.25;100.00
16030;BME280;34770;49.272;11.070;2022-12-18T08:54:46;99216.94;;;-5.22;100.00
16030;BME280;34770;49.272;11.070;2022-12-18T08:57:12;99210.22;;;-5.20;100.00
16030;BME280;34770;49.272;11.070;2022-12-18T08:59:37;99209.59;;;-5.15;100.00
16030;BME280;34770;49.272;11.070;2022-12-18T09:02:02;99208.31;;;-5.13;100.00
16030;BME280;34770;49.272;11.070;2022-12-18T09:04:28;99217.06;;;-5.10;100.00
16030;BME280;34770;49.272;11.070;2022-12-18T09:06:54;99220.94;;;-5.00;100.00
16030;BME280;34770;49.272;11.070;2022-12-18T09:09:20;99208.16;;;-4.92;100.00
16030;BME280;34770;49.272;11.070;2022-12-18T09:11:45;99201.69;;;-4.91;100.00
16030;BME280;34770;49.272;11.070;2022-12-18T09:14:10;99205.25;;;-4.91;100.00
16030;BME280;34770;49.272;11.070;2022-12-18T09:16:36;99205.34;;;-4.79;100.00
16030;BME280;34770;49.272;11.070;2022-12-18T09:19:03;99205.94;;;-4.70;100.00
16030;BME280;34770;49.272;11.070;2022-12-18T09:21:34;99208.44;;;-4.69;100.00
16030;BME280;34770;49.272;11.070;2022-12-18T09:23:59;99211.31;;;-4.63;100.00
16030;BME280;34770;49.272;11.070;2022-12-18T09:26:26;99212.31;;;-4.58;100.00
16030;BME280;34770;49.272;11.070;2022-12-18T09:28:51;99195.00;;;-4.63;100.00
16030;BME280;34770;49.272;11.070;2022-12-18T09:31:19;99208.81;;;-4.65;100.00
16030;BME280;34770;49.272;11.070;2022-12-18T09:33:44;99206.81;;;-4.51;100.00
16030;BME280;34770;49.272;11.070;2022-12-18T09:36:12;99204.09;;;-4.51;100.00
16030;BME280;34770;49.272;11.070;2022-12-18T09:38:38;99211.97;;;-4.43;100.00
16030;BME280;34770;49.272;11.070;2022-12-18T09:41:39;99202.34;;;-4.39;100.00
16030;BME280;34770;49.272;11.070;2022-12-18T09:47:14;99188.22;;;-4.29;100.00
16030;BME280;34770;49.272;11.070;2022-12-18T09:49:48;99183.09;;;-4.19;100.00
16030;BME280;34770;49.272;11.070;2022-12-18T09:52:27;99162.66;;;-4.46;100.00
16030;BME280;34770;49.272;11.070;2022-12-18T09:55:05;99179.88;;;-4.34;100.00
16030;BME280;34770;49.272;11.070;2022-12-18T09:57:39;99183.84;;;-4.30;100.00
16030;BME280;34770;49.272;11.070;2022-12-18T10:00:15;99182.31;;;-4.26;100.00
16030;BME280;34770;49.272;11.070;2022-12-18T10:02:41;99179.03;;;-4.28;100.00
16030;BME280;34770;49.272;11.070;2022-12-18T10:05:43;99185.13;;;-4.14;100.00
16030;BME280;34770;49.272;11.070;2022-12-18T10:08:13;99172.59;;;-4.34;100.00
16030;BME280;34770;49.272;11.070;2022-12-18T10:10:52;99191.47;;;-4.20;100.00
16030;BME280;34770;49.272;11.070;2022-12-18T10:13:23;99198.88;;;-4.09;100.00
16030;BME280;34770;49.272;11.070;2022-12-18T10:16:19;99184.91;;;-4.12;100.00
16030;BME280;34770;49.272;11.070;2022-12-18T10:21:51;99169.59;;;-4.07;100.00
16030;BME280;34770;49.272;11.070;2022-12-18T10:27:30;99159.53;;;-4.06;100.00
16030;BME280;34770;49.272;11.070;2022-12-18T10:29:57;99168.44;;;-3.99;100.00
16030;BME280;34770;49.272;11.070;2022-12-18T10:32:28;99172.31;;;-4.07;100.00
16030;BME280;34770;49.272;11.070;2022-12-18T10:34:56;99164.75;;;-4.05;100.00
16030;BME280;34770;49.272;11.070;2022-12-18T10:37:26;99172.31;;;-4.07;100.00
16030;BME280;34770;49.272;11.070;2022-12-18T10:40:10;99168.91;;;-4.02;100.00
16030;BME280;34770;49.272;11.070;2022-12-18T10:42:36;99170.19;;;-3.86;100.00
16030;BME280;34770;49.272;11.070;2022-12-18T10:45:13;99157.50;;;-3.92;100.00
16030;BME280;34770;49.272;11.070;2022-12-18T10:47:43;99160.22;;;-3.92;100.00
16030;BME280;34770;49.272;11.070;2022-12-18T10:50:28;99172.31;;;-3.70;100.00
16030;BME280;34770;49.272;11.070;2022-12-18T10:52:59;99174.41;;;-3.53;100.00
16030;BME280;34770;49.272;11.070;2022-12-18T10:55:37;99165.78;;;-3.50;100.00
16030;BME280;34770;49.272;11.070;2022-12-18T10:58:18;99167.06;;;-3.53;100.00
16030;BME280;34770;49.272;11.070;2022-12-18T11:08:29;99171.84;;;-3.06;100.00
16030;BME280;34770;49.272;11.070;2022-12-18T11:10:54;99171.84;;;-3.06;100.00
16030;BME280;34770;49.272;11.070;2022-12-18T11:13:22;99179.81;;;-3.04;100.00
16030;BME280;34770;49.272;11.070;2022-12-18T11:15:48;99155.78;;;-2.95;100.00
16030;BME280;34770;49.272;11.070;2022-12-18T11:20:55;99159.47;;;-2.90;98.47
16030;BME280;34770;49.272;11.070;2022-12-18T11:23:23;99163.22;;;-3.02;98.74
16030;BME280;34770;49.272;11.070;2022-12-18T11:25:54;99154.84;;;-2.89;98.14
16030;BME280;34770;49.272;11.070;2022-12-18T11:28:38;99154.56;;;-1.69;95.00
16030;BME280;34770;49.272;11.070;2022-12-18T11:31:25;99158.47;;;-0.61;88.13
16030;BME280;34770;49.272;11.070;2022-12-18T11:36:38;99131.69;;;0.37;79.10
16030;BME280;34770;49.272;11.070;2022-12-18T11:44:41;99116.34;;;1.98;71.05
16030;BME280;34770;49.272;11.070;2022-12-18T11:47:24;99130.00;;;1.88;69.54
16030;BME280;34770;49.272;11.070;2022-12-18T11:49:52;99115.03;;;1.25;71.01
16030;BME280;34770;49.272;11.070;2022-12-18T11:52:26;99117.91;;;1.08;71.47
16030;BME280;34770;49.272;11.070;2022-12-18T11:55:00;99110.63;;;0.42;72.42
16030;BME280;34770;49.272;11.070;2022-12-18T11:57:40;99123.50;;;-0.93;77.38
16030;BME280;34770;49.272;11.070;2022-12-18T12:00:15;99112.22;;;-1.14;79.90
16030;BME280;34770;49.272;11.070;2022-12-18T12:03:16;99112.53;;;-1.10;80.30
16030;BME280;34770;49.272;11.070;2022-12-18T12:14:03;99105.38;;;-0.82;80.91
16030;BME280;34770;49.272;11.070;2022-12-18T12:17:27;99061.28;;;-0.86;80.42
16030;BME280;34770;49.272;11.070;2022-12-18T12:20:20;99094.34;;;-0.70;80.99
16030;BME280;34770;49.272;11.070;2022-12-18T12:28:13;98975.72;;;-2.29;85.14
16030;BME280;34770;49.272;11.070;2022-12-18T12:36:21;99028.03;;;-1.91;84.31
16030;BME280;34770;49.272;11.070;2022-12-18T12:38:57;99024.84;;;-2.00;84.71
16030;BME280;34770;49.272;11.070;2022-12-18T12:41:27;99012.81;;;-1.87;84.34
16030;BME280;34770;49.272;11.070;2022-12-18T12:44:23;99093.59;;;-1.46;84.30
16030;BME280;34770;49.272;11.070;2022-12-18T12:46:52;98970.94;;;-2.51;85.77
16030;BME280;34770;49.272;11.070;2022-12-18T12:49:23;98975.94;;;-2.71;86.31
16030;BME280;34770;49.272;11.070;2022-12-18T12:52:05;98974.75;;;-2.76;87.72
16030;BME280;34770;49.272;11.070;2022-12-18T12:54:34;98989.53;;;-2.60;87.22
16030;BME280;34770;49.272;11.070;2022-12-18T12:57:09;99095.09;;;-1.67;87.59
16030;BME280;34770;49.272;11.070;2022-12-18T12:59:46;99035.38;;;-1.92;87.61
16030;BME280;34770;49.272;11.070;2022-12-18T13:02:23;99077.41;;;-1.64;87.13
16030;BME280;34770;49.272;11.070;2022-12-18T13:05:03;99014.22;;;-2.14;86.40
16030;BME280;34770;49.272;11.070;2022-12-18T13:07:45;99090.47;;;-1.95;88.26
16030;BME280;34770;49.272;11.070;2022-12-18T13:13:04;99080.44;;;-2.30;88.34
16030;BME280;34770;49.272;11.070;2022-12-18T13:15:42;98969.44;;;-3.18;89.38
16030;BME280;34770;49.272;11.070;2022-12-18T13:21:08;99073.34;;;-2.79;92.10
16030;BME280;34770;49.272;11.070;2022-12-18T13:23:39;98979.84;;;-3.39;92.86
16030;BME280;34770;49.272;11.070;2022-12-18T13:34:20;99027.13;;;-2.85;91.61
16030;BME280;34770;49.272;11.070;2022-12-18T13:36:49;99089.84;;;-2.62;91.20
16030;BME280;34770;49.272;11.070;2022-12-18T13:41:51;98969.28;;;-3.59;92.61
16030;BME280;34770;49.272;11.070;2022-12-18T13:44:31;99000.19;;;-3.41;93.73
16030;BME280;34770;49.272;11.070;2022-12-18T13:46:59;98999.81;;;-3.57;93.65
16030;BME280;34770;49.272;11.070;2022-12-18T13:51:56;98963.50;;;-3.62;93.41
16030;BME280;34770;49.272;11.070;2022-12-18T13:54:35;98959.31;;;-3.65;93.05
16030;BME280;34770;49.272;11.070;2022-12-18T13:57:03;99005.88;;;-3.43;93.21
16030;BME280;34770;49.272;11.070;2022-12-18T13:59:37;98944.38;;;-3.86;93.90
16030;BME280;34770;49.272;11.070;2022-12-18T14:02:15;98956.91;;;-3.85;94.31
16030;BME280;34770;49.272;11.070;2022-12-18T14:04:45;99057.28;;;-3.23;94.86
16030;BME280;34770;49.272;11.070;2022-12-18T14:07:26;98981.16;;;-3.83;95.67
16030;BME280;34770;49.272;11.070;2022-12-18T14:09:58;98994.69;;;-3.65;95.75
16030;BME280;34770;49.272;11.070;2022-12-18T14:12:28;98956.63;;;-3.95;96.38
16030;BME280;34770;49.272;11.070;2022-12-18T14:17:59;98972.50;;;-3.92;98.00
16030;BME280;34770;49.272;11.070;2022-12-18T14:20:27;99013.63;;;-3.70;98.37
16030;BME280;34770;49.272;11.070;2022-12-18T14:22:54;99023.44;;;-3.69;98.61
16030;BME280;34770;49.272;11.070;2022-12-18T14:25:26;99024.00;;;-3.79;99.51
16030;BME280;34770;49.272;11.070;2022-12-18T14:28:28;99048.06;;;-3.64;99.74
16030;BME280;34770;49.272;11.070;2022-12-18T14:30:54;98908.59;;;-4.44;99.37
16030;BME280;34770;49.272;11.070;2022-12-18T14:33:26;99021.84;;;-3.89;100.00